createdAt,value
2019-02-21T00:00:42.354Z,67.37
2019-02-21T00:03:13.718Z,69.17
2019-02-21T00:05:45.103Z,61.73
2019-02-21T00:08:16.479Z,67.90
2019-02-21T00:10:47.863Z,62.00
2019-02-21T00:13:19.198Z,68.17
2019-02-21T00:15:50.583Z,69.53
2019-02-21T00:18:21.963Z,64.77
2019-02-21T00:20:53.357Z,71.00
2019-02-21T00:23:24.754Z,69.03
2019-02-21T00:25:56.136Z,65.50
2019-02-21T00:28:27.514Z,63.87
2019-02-21T00:30:58.833Z,72.53
2019-02-21T00:33:30.249Z,71.50
2019-02-21T00:36:01.646Z,69.27
2019-02-21T00:38:33.034Z,65.22
2019-02-21T00:41:04.971Z,66.40
2019-02-21T00:43:36.265Z,69.65
2019-02-21T00:46:07.688Z,67.65
2019-02-21T00:48:39.208Z,65.90
2019-02-21T00:51:10.558Z,69.90
2019-02-21T00:53:41.914Z,63.42
2019-02-21T00:56:13.235Z,55.30
2019-02-21T00:58:44.606Z,63.15
2019-02-21T01:01:15.971Z,54.90
2019-02-21T01:03:47.386Z,60.33
2019-02-21T01:06:18.782Z,69.42
2019-02-21T01:08:50.135Z,61.77
2019-02-21T01:11:21.573Z,65.12
2019-02-21T01:13:52.835Z,57.80
2019-02-21T01:16:24.154Z,67.72
2019-02-21T01:18:56.588Z,61.88
2019-02-21T01:21:27.966Z,43.17
2019-02-21T01:23:59.382Z,50.33
2019-02-21T01:26:30.723Z,58.48
2019-02-21T01:29:02.067Z,65.22
2019-02-21T01:31:33.480Z,58.35
2019-02-21T01:34:04.910Z,44.93
2019-02-21T01:36:37.313Z,60.15
2019-02-21T01:39:08.706Z,62.93
2019-02-21T01:41:40.038Z,65.15
2019-02-21T01:44:11.402Z,58.70
2019-02-21T01:46:42.716Z,54.60
2019-02-21T01:49:14.136Z,56.45
2019-02-21T01:51:45.532Z,54.48
2019-02-21T01:54:16.992Z,61.98
2019-02-21T01:56:48.373Z,55.55
2019-02-21T01:59:19.688Z,48.42
2019-02-21T02:01:51.077Z,58.20
2019-02-21T02:04:22.392Z,41.25
2019-02-21T02:06:54.473Z,53.42
2019-02-21T02:11:56.222Z,52.48
2019-02-21T02:14:27.573Z,51.30
2019-02-21T02:16:59.179Z,50.38
2019-02-21T02:19:30.564Z,52.60
2019-02-21T02:22:01.890Z,50.30
2019-02-21T02:24:33.271Z,51.15
2019-02-21T02:27:04.605Z,44.35
2019-02-21T02:29:35.953Z,51.20
2019-02-21T02:32:09.662Z,50.83
2019-02-21T02:34:40.475Z,49.05
2019-02-21T02:37:11.783Z,47.17
2019-02-21T02:39:43.139Z,41.13
2019-02-21T02:42:15.991Z,45.85
2019-02-21T02:44:47.474Z,45.17
2019-02-21T02:47:18.863Z,50.67
2019-02-21T02:49:50.269Z,55.70
2019-02-21T02:52:21.597Z,60.25
2019-02-21T02:54:52.939Z,51.68
2019-02-21T02:57:24.362Z,52.50
2019-02-21T02:59:55.771Z,64.47
2019-02-21T03:02:27.222Z,63.30
2019-02-21T03:04:58.626Z,58.30
2019-02-21T03:07:30.078Z,43.85
2019-02-21T03:10:01.470Z,58.02
2019-02-21T03:12:33.960Z,56.18
2019-02-21T03:15:07.048Z,47.17
2019-02-21T03:17:38.324Z,47.33
2019-02-21T03:20:10.301Z,47.35
2019-02-21T03:22:41.729Z,43.23
2019-02-21T03:25:13.095Z,42.35
2019-02-21T03:27:44.486Z,44.13
2019-02-21T03:30:15.935Z,42.98
2019-02-21T03:32:47.338Z,40.65
2019-02-21T03:35:18.661Z,42.03
2019-02-21T03:37:50.084Z,37.17
2019-02-21T03:40:22.651Z,39.20
2019-02-21T03:42:53.984Z,41.15
2019-02-21T03:45:25.130Z,39.67
2019-02-21T03:47:56.469Z,30.20
2019-02-21T03:50:27.869Z,36.58
2019-02-21T03:52:59.262Z,28.57
2019-02-21T03:55:30.823Z,38.73
2019-02-21T03:58:02.196Z,37.20
2019-02-21T04:00:33.561Z,39.25
2019-02-21T04:03:05.000Z,36.28
2019-02-21T04:05:36.390Z,28.65
2019-02-21T04:08:07.785Z,33.28
2019-02-21T04:10:39.247Z,38.40
2019-02-21T04:13:10.591Z,36.42
2019-02-21T04:15:41.917Z,38.33
2019-02-21T04:18:13.240Z,35.28
2019-02-21T04:20:44.629Z,36.77
2019-02-21T04:23:16.014Z,38.95
2019-02-21T04:25:47.389Z,36.13
2019-02-21T04:28:18.849Z,36.93
2019-02-21T04:30:50.236Z,31.17
2019-02-21T04:33:21.582Z,37.73
2019-02-21T04:35:52.963Z,34.13
2019-02-21T04:38:24.352Z,32.05
2019-02-21T04:40:55.777Z,31.60
2019-02-21T04:43:27.028Z,33.30
2019-02-21T04:45:58.399Z,30.05
2019-02-21T04:48:29.812Z,32.80
2019-02-21T04:51:01.249Z,35.17
2019-02-21T04:53:32.765Z,37.85
2019-02-21T04:56:05.066Z,33.58
2019-02-21T04:58:36.490Z,24.60
2019-02-21T05:01:07.863Z,24.87
2019-02-21T05:03:39.244Z,34.20
2019-02-21T05:06:10.758Z,34.75
2019-02-21T05:08:42.116Z,34.63
2019-02-21T05:11:13.569Z,39.70
2019-02-21T05:13:44.906Z,36.15
2019-02-21T05:16:16.319Z,37.45
2019-02-21T05:18:47.849Z,28.67
2019-02-21T05:21:19.270Z,41.58
2019-02-21T05:23:50.647Z,41.65
2019-02-21T05:26:23.659Z,38.58
2019-02-21T05:28:55.046Z,35.52
2019-02-21T05:31:33.622Z,34.73
2019-02-21T05:34:06.584Z,36.77
2019-02-21T05:36:39.522Z,34.67
2019-02-21T05:39:30.422Z,34.50
2019-02-21T05:42:12.368Z,32.65
2019-02-21T05:47:32.637Z,29.60
2019-02-21T05:52:40.811Z,31.68
2019-02-21T05:55:28.689Z,32.67
2019-02-21T05:58:01.679Z,34.27
2019-02-21T06:00:40.562Z,34.20
2019-02-21T06:03:16.340Z,31.82
2019-02-21T06:05:52.535Z,32.40
2019-02-21T06:08:44.135Z,29.92
2019-02-21T06:11:18.201Z,32.48
2019-02-21T06:14:02.958Z,37.75
2019-02-21T06:16:36.983Z,35.85
2019-02-21T06:19:21.806Z,35.52
2019-02-21T06:22:09.673Z,36.30
2019-02-21T06:24:38.250Z,37.55
2019-02-21T06:27:16.984Z,37.58
2019-02-21T06:29:55.558Z,35.90
2019-02-21T06:32:26.929Z,35.10
2019-02-21T06:34:58.406Z,29.60
2019-02-21T06:37:29.677Z,29.82
2019-02-21T06:40:01.200Z,35.17
2019-02-21T06:42:32.509Z,32.83
2019-02-21T06:45:04.468Z,31.60
2019-02-21T06:47:35.829Z,36.65
2019-02-21T06:50:07.247Z,34.70
2019-02-21T06:52:40.585Z,31.20
2019-02-21T06:55:11.670Z,32.88
2019-02-21T06:57:44.004Z,32.83
2019-02-21T07:00:16.448Z,29.57
2019-02-21T07:02:47.838Z,26.77
2019-02-21T07:05:20.194Z,25.17
2019-02-21T07:07:51.602Z,26.25
2019-02-21T07:10:23.032Z,18.07
2019-02-21T07:12:54.372Z,26.02
2019-02-21T07:15:25.776Z,25.88
2019-02-21T07:17:57.230Z,25.25
2019-02-21T07:20:28.682Z,26.52
2019-02-21T07:23:01.226Z,26.68
2019-02-21T07:25:36.915Z,22.42
2019-02-21T07:28:11.686Z,24.52
2019-02-21T07:30:43.004Z,25.62
2019-02-21T07:33:28.355Z,26.02
2019-02-21T07:36:00.735Z,28.95
2019-02-21T07:38:32.085Z,31.45
2019-02-21T07:41:03.544Z,27.32
2019-02-21T07:43:34.872Z,27.40
2019-02-21T07:46:07.039Z,31.02
2019-02-21T07:48:38.682Z,26.52
2019-02-21T07:51:10.061Z,21.57
2019-02-21T07:53:41.456Z,22.70
2019-02-21T07:56:12.881Z,21.45
2019-02-21T07:58:44.365Z,20.62
2019-02-21T08:01:17.427Z,21.33
2019-02-21T08:03:48.925Z,22.42
2019-02-21T08:06:20.395Z,22.42
2019-02-21T08:08:51.805Z,19.48
2019-02-21T08:11:23.223Z,18.17
2019-02-21T08:13:54.628Z,17.90
2019-02-21T08:16:26.033Z,17.42
2019-02-21T08:18:57.376Z,15.30
2019-02-21T08:21:28.765Z,16.15
2019-02-21T08:24:00.154Z,14.25
2019-02-21T08:26:31.529Z,13.15
2019-02-21T08:29:02.835Z,14.00
2019-02-21T08:31:34.241Z,14.68
2019-02-21T08:34:07.420Z,15.35
2019-02-21T08:36:46.967Z,12.55
2019-02-21T08:39:18.388Z,13.88
2019-02-21T08:41:49.733Z,13.55
2019-02-21T08:44:21.164Z,8.90
2019-02-21T08:46:53.556Z,7.22
2019-02-21T08:49:25.620Z,10.68
2019-02-21T08:51:57.077Z,12.13
2019-02-21T08:54:28.446Z,8.08
2019-02-21T08:56:59.772Z,7.42
2019-02-21T08:59:30.974Z,6.95
2019-02-21T09:02:04.989Z,7.90
2019-02-21T09:04:35.278Z,7.97
2019-02-21T09:07:06.562Z,8.50
2019-02-21T09:09:37.904Z,8.48
2019-02-21T09:12:09.184Z,8.65
2019-02-21T09:14:40.575Z,5.62
2019-02-21T09:17:11.859Z,7.90
2019-02-21T09:19:43.152Z,9.40
2019-02-21T09:22:14.550Z,7.80
2019-02-21T09:24:45.799Z,5.95
2019-02-21T09:27:17.107Z,7.20
2019-02-21T09:29:48.324Z,4.22
2019-02-21T09:32:19.638Z,6.00
2019-02-21T09:34:50.857Z,6.65
2019-02-21T09:37:22.156Z,5.90
2019-02-21T09:39:53.375Z,8.38
2019-02-21T09:42:24.618Z,6.70
2019-02-21T09:44:55.893Z,6.33
2019-02-21T09:47:27.317Z,7.20
2019-02-21T09:49:58.638Z,6.83
2019-02-21T09:52:29.861Z,8.18
2019-02-21T09:55:01.117Z,7.10
2019-02-21T09:57:32.394Z,10.35
2019-02-21T10:00:05.684Z,5.17
2019-02-21T10:02:38.130Z,5.72
2019-02-21T10:05:09.445Z,7.58
2019-02-21T10:07:40.770Z,8.23
2019-02-21T10:10:15.149Z,5.22
2019-02-21T10:12:46.518Z,4.72
2019-02-21T10:15:17.725Z,2.42
2019-02-21T10:17:50.877Z,3.80
2019-02-21T10:20:22.562Z,3.10
2019-02-21T10:22:53.873Z,3.45
2019-02-21T10:25:27.566Z,3.58
2019-02-21T10:27:59.266Z,4.90
2019-02-21T10:30:30.613Z,3.90
2019-02-21T10:33:01.887Z,4.17
2019-02-21T10:35:34.325Z,4.87
2019-02-21T10:38:05.623Z,4.45
2019-02-21T10:40:36.878Z,5.33
2019-02-21T10:43:08.166Z,5.05
2019-02-21T10:45:47.382Z,4.67
2019-02-21T10:48:12.366Z,5.35
2019-02-21T10:50:43.634Z,4.78
2019-02-21T10:53:14.915Z,4.53
2019-02-21T10:55:48.045Z,6.15
2019-02-21T10:58:19.199Z,5.40
2019-02-21T11:00:50.458Z,6.05
2019-02-21T11:03:21.752Z,19.12
2019-02-21T11:05:53.097Z,6.25
2019-02-21T11:08:24.425Z,9.88
2019-02-21T11:10:55.640Z,10.98
2019-02-21T11:13:27.031Z,7.80
2019-02-21T11:15:58.284Z,7.60
2019-02-21T11:18:30.564Z,5.58
2019-02-21T11:21:01.905Z,5.17
2019-02-21T11:23:33.139Z,5.83
2019-02-21T11:26:04.455Z,5.70
2019-02-21T11:28:35.648Z,5.05
2019-02-21T11:31:06.879Z,4.40
2019-02-21T11:33:38.319Z,5.42
2019-02-21T11:36:09.603Z,4.33
2019-02-21T11:38:40.876Z,5.83
2019-02-21T11:41:12.076Z,7.25
2019-02-21T11:43:43.305Z,5.53
2019-02-21T11:46:14.572Z,6.65
2019-02-21T11:48:45.998Z,5.00
2019-02-21T11:51:17.252Z,7.62
2019-02-21T11:53:48.509Z,6.12
2019-02-21T11:56:19.764Z,7.67
2019-02-21T11:58:51.201Z,8.98
2019-02-21T12:01:22.468Z,11.00
2019-02-21T12:03:53.816Z,36.50
2019-02-21T12:06:25.204Z,7.90
2019-02-21T12:08:56.516Z,7.33
2019-02-21T12:11:27.716Z,7.30
2019-02-21T12:13:59.167Z,6.33
2019-02-21T12:16:30.430Z,7.22
2019-02-21T12:19:01.718Z,6.47
2019-02-21T12:21:32.876Z,7.60
2019-02-21T12:24:04.199Z,5.53
2019-02-21T12:26:35.354Z,6.55
2019-02-21T12:29:06.594Z,6.80
2019-02-21T12:31:37.974Z,7.67
2019-02-21T12:34:09.368Z,4.10
2019-02-21T12:36:40.569Z,6.22
2019-02-21T12:39:11.850Z,5.08
2019-02-21T12:41:43.034Z,6.30
2019-02-21T12:44:14.381Z,7.08
2019-02-21T12:46:45.858Z,6.47
2019-02-21T12:49:18.420Z,6.47
2019-02-21T12:51:49.820Z,6.95
2019-02-21T12:54:21.039Z,8.43
2019-02-21T12:56:52.259Z,7.42
2019-02-21T12:59:23.552Z,8.68
2019-02-21T13:01:54.878Z,8.28
2019-02-21T13:04:26.169Z,9.45
2019-02-21T13:06:57.451Z,7.33
2019-02-21T13:09:28.623Z,7.05
2019-02-21T13:11:59.867Z,10.78
2019-02-21T13:14:32.559Z,11.48
2019-02-21T13:17:03.949Z,9.85
2019-02-21T13:19:35.219Z,7.62
2019-02-21T13:22:06.562Z,4.62
2019-02-21T13:24:37.792Z,4.20
2019-02-21T13:27:09.049Z,4.85
2019-02-21T13:29:40.371Z,5.62
2019-02-21T13:32:11.576Z,5.40
2019-02-21T13:34:44.045Z,5.90
2019-02-21T13:37:15.220Z,6.28
2019-02-21T13:39:46.497Z,5.03
2019-02-21T13:42:17.982Z,4.70
2019-02-21T13:44:49.182Z,5.17
2019-02-21T13:47:20.560Z,5.25
2019-02-21T13:49:51.958Z,3.62
2019-02-21T13:52:23.356Z,4.33
2019-02-21T13:54:54.660Z,4.65
2019-02-21T13:57:25.939Z,5.45
2019-02-21T13:59:57.396Z,4.28
2019-02-21T14:02:28.671Z,5.17
2019-02-21T14:05:00.008Z,4.58
2019-02-21T14:07:31.349Z,4.33
2019-02-21T14:10:02.574Z,3.95
2019-02-21T14:12:33.867Z,4.67
2019-02-21T14:15:14.189Z,3.92
2019-02-21T14:17:46.600Z,4.12
2019-02-21T14:20:18.083Z,3.65
2019-02-21T14:22:49.350Z,5.00
2019-02-21T14:25:20.625Z,5.05
2019-02-21T14:27:51.909Z,4.37
2019-02-21T14:30:23.121Z,3.50
2019-02-21T14:32:54.434Z,3.70
2019-02-21T14:35:25.688Z,4.40
2019-02-21T14:37:57.031Z,5.62
2019-02-21T14:40:28.288Z,5.22
2019-02-21T14:42:59.636Z,4.45
2019-02-21T14:45:30.908Z,4.72
2019-02-21T14:48:02.229Z,3.60
2019-02-21T14:50:35.987Z,3.90
2019-02-21T14:53:07.503Z,4.37
2019-02-21T14:55:38.811Z,3.90
2019-02-21T14:58:10.171Z,4.75
2019-02-21T15:00:41.395Z,5.70
2019-02-21T15:03:21.442Z,4.47
2019-02-21T15:05:45.671Z,7.80
2019-02-21T15:08:21.954Z,8.95
2019-02-21T15:10:52.850Z,7.92
2019-02-21T15:13:25.629Z,7.30
2019-02-21T15:15:57.098Z,8.53
2019-02-21T15:18:28.366Z,7.85
2019-02-21T15:20:59.717Z,8.25
2019-02-21T15:23:30.997Z,7.53
2019-02-21T15:26:02.279Z,8.38
2019-02-21T15:28:33.533Z,8.60
2019-02-21T15:31:04.855Z,6.95
2019-02-21T15:33:36.163Z,7.72
2019-02-21T15:36:07.434Z,9.68
2019-02-21T15:38:38.945Z,11.28
2019-02-21T15:41:10.285Z,11.80
2019-02-21T15:43:41.621Z,6.80
2019-02-21T15:46:13.028Z,8.73
2019-02-21T15:48:44.872Z,9.45
2019-02-21T15:51:16.532Z,7.55
2019-02-21T15:53:47.769Z,7.95
2019-02-21T15:56:19.031Z,7.05
2019-02-21T15:58:50.271Z,6.28
2019-02-21T16:01:21.644Z,5.55
2019-02-21T16:03:52.890Z,5.30
2019-02-21T16:06:24.147Z,7.08
2019-02-21T16:08:55.392Z,5.85
2019-02-21T16:11:26.626Z,5.40
2019-02-21T16:14:03.023Z,7.17
2019-02-21T16:16:30.960Z,9.35
2019-02-21T16:19:02.267Z,14.13
2019-02-21T16:21:33.600Z,11.08
2019-02-21T16:24:05.004Z,9.98
2019-02-21T16:26:36.264Z,14.20
2019-02-21T16:29:07.587Z,15.55
2019-02-21T16:31:38.962Z,13.25
2019-02-21T16:34:10.355Z,16.73
2019-02-21T16:36:41.685Z,15.32
2019-02-21T16:39:13.219Z,15.05
2019-02-21T16:41:44.968Z,12.35
2019-02-21T16:44:17.316Z,16.90
2019-02-21T16:46:48.625Z,9.65
2019-02-21T16:49:19.896Z,7.33
2019-02-21T16:51:51.189Z,8.23
2019-02-21T16:54:22.420Z,8.50
2019-02-21T16:56:53.755Z,8.88
2019-02-21T16:59:25.184Z,9.33
2019-02-21T17:01:56.380Z,11.65
2019-02-21T17:04:27.901Z,10.13
2019-02-21T17:06:59.277Z,11.25
2019-02-21T17:09:30.657Z,10.08
2019-02-21T17:12:02.095Z,14.90
2019-02-21T17:14:33.442Z,10.23
2019-02-21T17:17:04.820Z,17.67
2019-02-21T17:19:36.169Z,15.15
2019-02-21T17:22:07.530Z,15.45
2019-02-21T17:24:38.924Z,14.20
2019-02-21T17:27:10.358Z,16.20
2019-02-21T17:29:41.733Z,15.05
2019-02-21T17:32:13.162Z,13.38
2019-02-21T17:34:44.540Z,10.18
2019-02-21T17:37:24.600Z,8.68
2019-02-21T17:39:48.875Z,11.10
2019-02-21T17:42:20.308Z,13.05
2019-02-21T17:44:51.694Z,8.78
2019-02-21T17:47:22.974Z,11.35
2019-02-21T17:49:54.375Z,9.13
2019-02-21T17:52:28.564Z,11.18
2019-02-21T17:54:59.987Z,12.82
2019-02-21T17:57:32.355Z,17.75
2019-02-21T18:00:05.815Z,20.02
2019-02-21T18:02:37.303Z,19.07
2019-02-21T18:05:10.030Z,16.37
2019-02-21T18:07:41.420Z,17.57
2019-02-21T18:10:15.003Z,15.63
2019-02-21T18:12:46.334Z,11.22
2019-02-21T18:15:18.874Z,10.82
2019-02-21T18:17:51.593Z,7.92
2019-02-21T18:20:22.849Z,6.92
2019-02-21T18:22:54.150Z,8.35
2019-02-21T18:25:40.268Z,5.90
2019-02-21T18:28:11.606Z,7.45
2019-02-21T18:30:42.888Z,7.00
2019-02-21T18:33:14.118Z,12.85
2019-02-21T18:35:45.438Z,15.78
2019-02-21T18:38:16.701Z,21.10
2019-02-21T18:40:48.006Z,10.32
2019-02-21T18:43:19.396Z,12.28
2019-02-21T18:45:50.809Z,6.72
2019-02-21T18:48:22.053Z,13.32
2019-02-21T18:50:53.364Z,17.77
2019-02-21T18:53:24.672Z,18.37
2019-02-21T18:55:56.061Z,18.27
2019-02-21T18:58:27.424Z,19.07
2019-02-21T19:00:59.766Z,15.50
2019-02-21T19:03:31.160Z,16.82
2019-02-21T19:06:03.583Z,14.87
2019-02-21T19:08:36.086Z,13.80
2019-02-21T19:11:07.541Z,16.20
2019-02-21T19:13:38.956Z,20.95
2019-02-21T19:16:10.355Z,15.05
2019-02-21T19:18:41.731Z,14.80
2019-02-21T19:21:13.171Z,15.35
2019-02-21T19:23:44.596Z,32.17
2019-02-21T19:26:16.267Z,17.92
2019-02-21T19:28:48.054Z,16.93
2019-02-21T19:31:21.872Z,18.65
2019-02-21T19:33:53.269Z,21.85
2019-02-21T19:36:24.713Z,17.37
2019-02-21T19:38:56.049Z,19.35
2019-02-21T19:41:27.490Z,17.32
2019-02-21T19:44:08.391Z,18.87
2019-02-21T19:46:31.907Z,20.75
2019-02-21T19:49:03.422Z,18.87
2019-02-21T19:51:34.767Z,21.55
2019-02-21T19:54:06.237Z,26.50
2019-02-21T19:56:37.580Z,22.85
2019-02-21T19:59:09.007Z,20.05
2019-02-21T20:01:40.532Z,20.05
2019-02-21T20:04:12.031Z,18.73
2019-02-21T20:06:43.528Z,12.25
2019-02-21T20:09:15.246Z,14.63
2019-02-21T20:11:46.575Z,12.65
2019-02-21T20:14:18.118Z,8.28
2019-02-21T20:16:49.551Z,23.83
2019-02-21T20:19:20.896Z,13.08
2019-02-21T20:21:54.513Z,21.57
2019-02-21T20:24:26.200Z,20.70
2019-02-21T20:27:00.155Z,13.78
2019-02-21T20:29:30.706Z,16.57
2019-02-21T20:32:02.051Z,18.25
2019-02-21T20:34:33.379Z,18.57
2019-02-21T20:37:04.694Z,19.90
2019-02-21T20:39:36.076Z,21.62
2019-02-21T20:42:07.447Z,18.95
2019-02-21T20:44:38.963Z,18.27
2019-02-21T20:47:10.378Z,16.27
2019-02-21T20:49:41.775Z,11.10
2019-02-21T20:52:13.144Z,17.00
2019-02-21T20:54:45.489Z,15.18
2019-02-21T20:57:16.929Z,14.43
2019-02-21T20:59:48.337Z,12.05
2019-02-21T21:02:19.980Z,13.85
2019-02-21T21:04:52.628Z,14.68
2019-02-21T21:07:25.390Z,14.47
2019-02-21T21:09:57.122Z,14.23
2019-02-21T21:12:28.566Z,16.95
2019-02-21T21:14:59.920Z,11.38
2019-02-21T21:17:31.348Z,11.05
2019-02-21T21:20:02.742Z,5.95
2019-02-21T21:22:35.773Z,11.73
2019-02-21T21:25:10.873Z,12.25
2019-02-21T21:27:42.203Z,13.13
2019-02-21T21:30:15.680Z,6.80
2019-02-21T21:32:47.059Z,6.03
2019-02-21T21:35:18.444Z,5.75
2019-02-21T21:37:49.832Z,5.58
2019-02-21T21:40:21.205Z,4.22
2019-02-21T21:42:52.461Z,5.80
2019-02-21T21:45:23.789Z,6.00
2019-02-21T21:47:57.264Z,9.48
2019-02-21T21:50:28.362Z,11.57
2019-02-21T21:52:59.696Z,10.00
2019-02-21T21:55:31.159Z,10.88
2019-02-21T21:58:02.631Z,10.50
2019-02-21T22:00:33.988Z,8.63
2019-02-21T22:03:05.375Z,6.37
2019-02-21T22:05:36.750Z,7.40
2019-02-21T22:08:08.136Z,8.20
2019-02-21T22:10:39.479Z,8.35
2019-02-21T22:13:10.822Z,8.05
2019-02-21T22:15:42.192Z,7.45
2019-02-21T22:18:13.559Z,6.03
2019-02-21T22:20:44.954Z,8.03
2019-02-21T22:23:16.338Z,7.85
2019-02-21T22:25:47.741Z,7.58
2019-02-21T22:28:19.160Z,8.58
2019-02-21T22:30:50.608Z,8.73
2019-02-21T22:33:21.963Z,7.47
2019-02-21T22:35:53.369Z,9.65
2019-02-21T22:38:24.837Z,18.50
2019-02-21T22:40:56.224Z,15.80
2019-02-21T22:43:27.632Z,19.15
2019-02-21T22:45:59.081Z,18.15
2019-02-21T22:48:30.359Z,11.22
2019-02-21T22:51:01.688Z,13.55
2019-02-21T22:53:33.015Z,17.15
2019-02-21T22:56:04.422Z,16.93
2019-02-21T22:58:44.735Z,18.48
2019-02-21T23:01:19.127Z,18.52
2019-02-21T23:03:55.531Z,17.25
2019-02-21T23:06:30.039Z,14.05
2019-02-21T23:09:01.490Z,12.82
2019-02-21T23:11:34.328Z,11.95
2019-02-21T23:14:05.670Z,10.35
2019-02-21T23:16:37.096Z,7.70
2019-02-21T23:19:09.659Z,9.95
2019-02-21T23:21:41.225Z,13.88
2019-02-21T23:24:13.348Z,13.75
2019-02-21T23:26:44.670Z,14.85
2019-02-21T23:29:16.101Z,11.88
2019-02-21T23:31:48.612Z,15.85
2019-02-21T23:34:21.609Z,16.30
2019-02-21T23:36:53.052Z,15.55
2019-02-21T23:39:24.500Z,16.95
2019-02-21T23:41:55.826Z,15.72
2019-02-21T23:44:27.144Z,17.75
2019-02-21T23:46:58.641Z,16.97
2019-02-21T23:49:30.049Z,16.02
2019-02-21T23:52:01.368Z,12.47
2019-02-21T23:54:32.700Z,10.15
2019-02-21T23:57:04.069Z,10.68
2019-02-21T23:59:35.483Z,10.35
